Time;durP1;ratioP1;P1;durP2;ratioP2;P2;SDS_P1;SDS_P2;PMS_P1;PMS_P2;Temp;Humidity;BMP_temperature;BMP_pressure;BME280_temperature;BME280_humidity;BME280_pressure;Samples;Min_cycle;Max_cycle;Signal;HPM_P1;HPM_P2
2022/01/31 04:33:09;;;;;;;12.97;6.20;;;;;;;6.96;54.08;98526.63;7135635;23;20246;-86
2022/01/31 04:36:31;;;;;;;15.03;5.90;;;;;;;7.33;54.39;98595.31;6952454;28;20293;-84
2022/01/31 04:39:53;;;;;;;12.40;6.57;;;;;;;7.18;54.34;98602.56;6950281;28;20216;-85
2022/01/31 04:43:15;;;;;;;12.30;5.73;;;;;;;6.97;54.00;98511.38;6950416;28;20732;-84
2022/01/31 04:46:36;;;;;;;10.03;5.43;;;;;;;6.91;54.15;98504.97;6950036;28;20213;-84
2022/01/31 04:49:59;;;;;;;12.17;5.70;;;;;;;7.14;54.82;98582.50;6954319;28;20209;-84
2022/01/31 04:53:21;;;;;;;10.00;5.40;;;;;;;7.08;55.03;98521.63;6955659;28;20237;-84
2022/01/31 04:56:44;;;;;;;10.63;5.67;;;;;;;6.70;55.91;98494.19;6953580;28;20209;-84
2022/01/31 05:00:08;;;;;;;12.20;5.90;;;;;;;6.67;56.52;98499.09;6954639;28;20209;-84
2022/01/31 05:03:32;;;;;;;8.60;5.13;;;;;;;6.99;54.96;98418.22;6954322;28;20239;-85
2022/01/31 05:06:55;;;;;;;14.73;5.53;;;;;;;7.03;54.51;98401.59;6954655;28;20214;-84
2022/01/31 05:10:17;;;;;;;14.07;5.90;;;;;;;6.74;56.24;98444.56;6953049;28;20199;-84
2022/01/31 05:13:38;;;;;;;11.57;5.97;;;;;;;6.30;56.43;98347.47;6953962;28;20211;-84
2022/01/31 05:17:11;;;;;;;16.23;5.93;;;;;;;6.69;56.15;98384.53;6954476;28;20237;-86
2022/01/31 05:20:32;;;;;;;10.40;5.57;;;;;;;6.17;56.64;98311.69;6953596;28;20267;-84
2022/01/31 05:23:55;;;;;;;10.93;5.27;;;;;;;6.33;57.40;98363.16;6953656;28;20229;-86
2022/01/31 05:27:20;;;;;;;9.93;5.87;;;;;;;6.68;56.85;98348.91;6955009;28;20206;-86
2022/01/31 05:30:42;;;;;;;12.40;5.70;;;;;;;7.02;56.24;98354.34;6964242;23;20226;-84
2022/01/31 05:34:05;;;;;;;9.37;4.70;;;;;;;7.58;54.45;98337.22;6985165;28;20234;-86
2022/01/31 05:37:27;;;;;;;9.67;5.60;;;;;;;7.58;54.84;98353.31;6984149;28;20208;-86
2022/01/31 05:40:50;;;;;;;10.13;4.83;;;;;;;6.96;54.25;98239.06;6985198;28;20226;-87
2022/01/31 05:48:28;;;;;;;8.33;4.63;;;;;;;6.91;54.99;98260.25;6987260;28;20185;-86
2022/01/31 05:51:57;;;;;;;9.03;4.97;;;;;;;7.76;53.81;98310.69;6966152;28;20215;-86
2022/01/31 05:55:19;;;;;;;9.77;4.20;;;;;;;6.78;54.26;98177.94;6980599;28;20219;-86
2022/01/31 05:58:43;;;;;;;8.03;4.67;;;;;;;7.08;54.29;98218.75;6982474;28;20220;-87
2022/01/31 06:02:05;;;;;;;8.77;4.53;;;;;;;7.68;54.11;98289.41;6982106;28;20236;-85
2022/01/31 06:05:28;;;;;;;7.70;4.70;;;;;;;7.71;52.99;98239.91;6983565;28;20211;-84
2022/01/31 06:08:49;;;;;;;9.87;4.93;;;;;;;7.98;52.70;98260.41;6981969;28;20471;-84
2022/01/31 06:12:15;;;;;;;9.27;4.93;;;;;;;8.28;52.97;98267.97;6982826;28;20224;-85
2022/01/31 06:15:39;;;;;;;10.70;4.53;;;;;;;7.38;52.86;98131.66;6982967;28;20240;-86
2022/01/31 06:19:01;;;;;;;12.07;4.17;;;;;;;7.77;54.86;98258.69;6981926;28;20567;-87
2022/01/31 06:22:23;;;;;;;12.53;4.70;;;;;;;8.59;52.27;98227.91;6979805;28;20230;-85
2022/01/31 06:25:45;;;;;;;9.43;4.80;;;;;;;8.30;51.80;98198.75;6980742;28;20202;-85
2022/01/31 06:29:07;;;;;;;12.43;4.80;;;;;;;8.34;53.07;98196.47;6953377;28;20212;-85
2022/01/31 06:32:30;;;;;;;8.93;4.47;;;;;;;8.31;53.57;98170.06;6950920;28;20741;-85
2022/01/31 06:35:56;;;;;;;6.83;4.53;;;;;;;7.82;53.18;98108.66;6953065;28;20220;-85
2022/01/31 06:40:08;;;;;;;9.37;4.00;;;;;;;7.88;54.46;98149.94;6955918;28;20204;-86
2022/01/31 06:51:52;;;;;;;12.83;5.27;;;;;;;6.90;57.93;98093.31;6946469;28;20640;-85
2022/01/31 06:55:55;;;;;;;11.57;5.90;;;;;;;6.87;58.06;98103.59;6946683;28;20207;-87
2022/01/31 07:04:02;;;;;;;17.73;5.10;;;;;;;7.61;58.91;98215.28;6969655;28;20229;-86
2022/01/31 07:08:01;;;;;;;12.97;6.13;;;;;;;7.28;58.80;98133.88;6977991;28;20221;-84
2022/01/31 07:15:34;;;;;;;9.53;5.00;;;;;;;7.48;58.71;98150.88;6919818;28;20203;-87
2022/01/31 07:19:07;;;;;;;9.43;4.87;;;;;;;8.24;58.95;98282.81;6974718;28;20409;-87
2022/01/31 07:22:34;;;;;;;12.97;5.07;;;;;;;7.96;59.71;98276.72;6976297;28;20231;-87
2022/01/31 07:25:57;;;;;;;13.10;5.73;;;;;;;7.81;60.23;98267.16;6976828;28;20194;-87
2022/01/31 07:29:20;;;;;;;11.33;5.17;;;;;;;7.97;59.95;98256.06;6976278;28;20217;-87
2022/01/31 07:32:42;;;;;;;9.90;5.10;;;;;;;8.14;59.49;98242.06;6974716;28;20374;-85
2022/01/31 07:36:04;;;;;;;9.87;5.20;;;;;;;8.21;59.88;98263.59;6976118;28;20662;-87
2022/01/31 07:39:25;;;;;;;9.03;5.03;;;;;;;7.37;59.94;98167.53;6976826;28;20308;-87
2022/01/31 07:42:48;;;;;;;13.20;5.70;;;;;;;7.39;60.60;98171.69;6977524;28;20618;-87
2022/01/31 07:46:11;;;;;;;12.47;5.33;;;;;;;8.04;60.25;98257.75;6973109;28;20205;-86
2022/01/31 07:49:32;;;;;;;10.80;5.00;;;;;;;7.44;61.47;98165.72;6976540;28;20204;-86
2022/01/31 07:52:54;;;;;;;8.60;5.33;;;;;;;8.15;60.47;98283.19;6976385;28;20226;-87
2022/01/31 07:56:17;;;;;;;12.07;5.93;;;;;;;7.69;60.54;98217.78;6975862;28;20209;-86
2022/01/31 07:59:40;;;;;;;10.80;6.50;;;;;;;7.91;61.50;98284.53;6971907;28;20557;-86
2022/01/31 08:03:02;;;;;;;7.73;4.80;;;;;;;7.49;60.54;98182.84;6969251;28;20232;-86
2022/01/31 08:06:23;;;;;;;8.80;5.13;;;;;;;8.21;60.40;98290.44;6982310;28;20206;-86
2022/01/31 08:09:45;;;;;;;7.87;4.77;;;;;;;8.17;60.18;98273.91;6981150;28;20206;-86
2022/01/31 08:13:08;;;;;;;10.33;4.93;;;;;;;7.95;60.22;98234.78;6987102;28;20226;-86
2022/01/31 08:16:31;;;;;;;4.97;4.03;;;;;;;7.75;60.49;98212.47;6972298;28;20238;-87
2022/01/31 08:19:53;;;;;;;7.20;3.97;;;;;;;8.19;60.73;98277.19;6964464;28;20209;-87
2022/01/31 08:23:15;;;;;;;6.03;4.03;;;;;;;8.12;60.27;98262.09;6970189;28;20257;-88
2022/01/31 08:26:36;;;;;;;7.43;3.60;;;;;;;8.03;60.02;98206.94;6971247;28;20207;-87
2022/01/31 08:30:07;;;;;;;5.97;4.17;;;;;;;8.24;60.31;98252.47;6968069;28;20209;-86
2022/01/31 08:33:36;;;;;;;4.60;3.60;;;;;;;8.18;60.57;98231.75;6953676;28;20234;-86
2022/01/31 08:36:58;;;;;;;4.97;4.03;;;;;;;8.25;60.75;98238.00;6952626;28;20256;-86
2022/01/31 08:40:19;;;;;;;5.33;3.27;;;;;;;8.84;59.29;98263.88;6961556;28;20211;-86
2022/01/31 08:43:41;;;;;;;5.90;3.70;;;;;;;8.91;58.35;98226.25;6979873;28;20230;-86
2022/01/31 08:47:05;;;;;;;4.77;3.70;;;;;;;8.09;59.30;98160.50;6970152;28;20494;-86
2022/01/31 08:50:28;;;;;;;4.50;2.63;;;;;;;8.61;59.05;98246.50;6959100;28;20199;-86
2022/01/31 08:53:49;;;;;;;3.40;3.10;;;;;;;8.86;58.64;98247.53;6953266;28;21210;-86
2022/01/31 08:57:11;;;;;;;2.90;2.60;;;;;;;8.66;58.94;98249.41;6956454;28;20295;-86
2022/01/31 09:00:36;;;;;;;3.50;2.73;;;;;;;8.30;59.11;98187.19;6952247;28;20229;-86
2022/01/31 09:04:05;;;;;;;2.57;2.37;;;;;;;8.61;58.15;98208.91;6952064;28;20242;-86
2022/01/31 09:07:28;;;;;;;2.20;2.10;;;;;;;8.47;58.03;98183.06;6953237;28;20194;-86
2022/01/31 09:10:50;;;;;;;2.20;2.00;;;;;;;8.72;58.82;98257.47;6951630;28;20215;-86
2022/01/31 09:14:12;;;;;;;2.43;2.30;;;;;;;8.61;59.21;98255.38;6967492;28;20693;-86
2022/01/31 09:17:35;;;;;;;4.97;4.13;;;;;;;8.79;58.69;98252.91;6982786;28;20208;-86
2022/01/31 09:21:01;;;;;;;3.93;3.43;;;;;;;8.68;57.38;98156.81;6979354;28;20328;-86
2022/01/31 09:24:24;;;;;;;2.50;2.30;;;;;;;8.85;57.80;98246.69;6989391;28;20252;-87
2022/01/31 09:27:45;;;;;;;4.03;2.53;;;;;;;8.87;57.62;98231.22;6988409;28;20208;-87
2022/01/31 09:31:08;;;;;;;3.57;3.07;;;;;;;9.09;56.67;98205.75;6967598;28;20289;-88
2022/01/31 09:34:30;;;;;;;2.73;2.53;;;;;;;9.35;56.79;98219.13;6974740;28;20241;-87
2022/01/31 09:37:52;;;;;;;2.10;2.00;;;;;;;8.79;56.24;98152.66;6954075;28;20207;-87
2022/01/31 09:41:20;;;;;;;2.10;1.90;;;;;;;9.37;55.50;98230.47;6948190;28;20236;-88
2022/01/31 09:44:49;;;;;;;3.10;2.30;;;;;;;9.24;55.12;98233.22;6968987;28;20211;-87
2022/01/31 09:51:51;;;;;;;3.43;1.90;;;;;;;9.47;54.89;98234.41;6974950;28;20230;-88
2022/01/31 09:55:14;;;;;;;4.20;2.97;;;;;;;9.04;54.11;98192.09;6972168;28;20569;-87
2022/01/31 09:58:37;;;;;;;2.00;1.90;;;;;;;9.75;53.41;98215.25;6961654;28;20229;-90
2022/01/31 10:02:09;;;;;;;2.67;2.40;;;;;;;9.18;53.70;98137.25;6974170;28;20226;-90
2022/01/31 10:05:31;;;;;;;2.70;2.10;;;;;;;9.07;53.76;98188.16;6974481;28;20230;-88
2022/01/31 10:09:13;;;;;;;2.30;2.10;;;;;;;8.93;54.13;98173.09;6974393;28;20201;-90
2022/01/31 10:16:27;;;;;;;4.47;2.50;;;;;;;8.73;53.19;98130.13;6957325;28;20559;-88
2022/01/31 10:19:50;;;;;;;3.37;2.30;;;;;;;9.28;52.92;98237.94;6962298;28;20243;-88
2022/01/31 10:23:14;;;;;;;3.13;2.30;;;;;;;9.50;52.26;98225.91;6969362;28;20311;-88
2022/01/31 10:26:35;;;;;;;2.10;2.00;;;;;;;8.52;53.95;98202.06;6973597;28;20198;-87
2022/01/31 10:30:08;;;;;;;3.20;2.53;;;;;;;9.30;53.33;98245.81;6960177;28;20199;-89
2022/01/31 10:33:33;;;;;;;4.73;2.90;;;;;;;8.53;53.56;98110.53;6966257;28;20834;-90
2022/01/31 10:36:56;;;;;;;3.67;2.60;;;;;;;8.76;53.56;98143.16;6983044;28;20208;-88
2022/01/31 10:51:54;;;;;;;4.90;2.50;;;;;;;9.09;52.28;98142.03;6960693;28;20221;-85
2022/01/31 10:55:16;;;;;;;3.73;2.40;;;;;;;8.92;52.38;98201.00;6973809;28;20218;-87
2022/01/31 10:58:53;;;;;;;7.20;5.30;;;;;;;9.40;50.68;98134.03;6973420;28;20674;-89
2022/01/31 11:02:18;;;;;;;10.30;8.57;;;;;;;9.50;49.81;98136.28;6961933;28;20218;-86
2022/01/31 11:05:40;;;;;;;5.13;3.67;;;;;;;10.29;48.79;98186.78;6950584;28;20223;-89
2022/01/31 11:09:07;;;;;;;2.60;2.40;;;;;;;9.04;50.72;98123.00;6949641;28;20211;-85
2022/01/31 11:16:09;;;;;;;3.33;2.43;;;;;;;9.21;50.15;98128.75;6977753;28;20206;-86
2022/01/31 11:19:33;;;;;;;3.57;2.73;;;;;;;9.35;50.27;98115.03;6954859;28;20214;-88
2022/01/31 11:22:58;;;;;;;2.93;2.43;;;;;;;9.51;49.03;98090.31;6955353;28;20242;-86
2022/01/31 11:26:23;;;;;;;8.80;5.10;;;;;;;8.42;51.51;98059.31;6979809;28;20209;-86
2022/01/31 11:29:47;;;;;;;4.00;2.70;;;;;;;9.35;51.14;98124.97;6983463;28;20209;-86
2022/01/31 11:33:11;;;;;;;7.10;2.70;;;;;;;9.73;49.85;98133.88;6994416;28;20232;-86
2022/01/31 11:36:35;;;;;;;2.50;2.30;;;;;;;9.90;50.05;98175.38;6981876;28;20223;-86
2022/01/31 11:39:59;;;;;;;4.87;2.97;;;;;;;10.29;49.72;98175.16;6980202;28;20252;-86
2022/01/31 11:43:22;;;;;;;5.77;2.73;;;;;;;10.03;49.30;98153.78;6980848;28;20233;-87
2022/01/31 11:46:44;;;;;;;4.70;2.07;;;;;;;9.08;50.23;98101.91;6977204;28;20218;-87
2022/01/31 11:50:07;;;;;;;3.00;2.10;;;;;;;9.22;51.02;98149.22;6969657;28;20208;-89
2022/01/31 11:53:31;;;;;;;2.63;2.40;;;;;;;8.87;53.10;98190.06;6971576;28;20816;-87
2022/01/31 11:56:54;;;;;;;2.33;2.13;;;;;;;8.87;53.10;98142.50;6957559;28;20232;-88
2022/01/31 12:00:19;;;;;;;4.57;2.30;;;;;;;8.39;53.37;98126.88;6989426;28;20333;-87
2022/01/31 12:03:51;;;;;;;2.73;2.20;;;;;;;8.98;53.14;98195.63;6989495;28;20705;-88
2022/01/31 12:07:36;;;;;;;2.73;2.00;;;;;;;8.39;53.47;98134.91;6969600;28;20217;-88
2022/01/31 12:11:06;;;;;;;5.07;2.60;;;;;;;8.29;53.14;98087.00;6976141;28;20249;-87
2022/01/31 12:14:42;;;;;;;6.67;2.23;;;;;;;8.25;52.40;98082.25;6989666;28;20221;-87
2022/01/31 12:18:45;;;;;;;2.13;1.90;;;;;;;8.79;53.03;98179.53;6990395;28;20187;-89
2022/01/31 12:22:09;;;;;;;3.80;2.50;;;;;;;8.62;52.94;98106.59;6990139;28;20218;-87
2022/01/31 12:25:31;;;;;;;2.87;2.30;;;;;;;7.80;53.78;98049.00;6989958;28;20222;-88
2022/01/31 12:28:55;;;;;;;3.37;2.10;;;;;;;8.84;53.77;98167.09;6990873;28;20666;-88
2022/01/31 12:32:18;;;;;;;2.60;2.23;;;;;;;8.81;52.82;98134.44;6983449;28;20230;-87
2022/01/31 12:35:42;;;;;;;2.90;2.13;;;;;;;9.10;52.75;98156.31;6987069;28;20209;-88
2022/01/31 12:39:10;;;;;;;6.73;2.23;;;;;;;9.01;52.12;98129.88;6969963;28;20198;-87
2022/01/31 12:43:10;;;;;;;3.60;2.00;;;;;;;8.93;52.38;98122.00;6972651;28;20245;-88
2022/01/31 12:46:32;;;;;;;3.20;2.27;;;;;;;8.20;53.65;98079.38;6971345;28;20245;-87
2022/01/31 12:50:21;;;;;;;5.27;2.37;;;;;;;8.95;53.54;98150.34;6977360;28;20672;-87
2022/01/31 12:53:49;;;;;;;3.30;2.17;;;;;;;8.38;55.47;98134.09;6950935;28;20235;-88
2022/01/31 12:57:13;;;;;;;8.33;3.70;;;;;;;8.32;54.68;98048.97;6956532;28;20692;-88
2022/01/31 13:00:39;;;;;;;7.60;3.10;;;;;;;8.52;54.00;98071.28;6970153;28;20225;-88
2022/01/31 13:04:02;;;;;;;5.23;2.43;;;;;;;8.90;55.15;98122.44;6977416;28;20223;-87
2022/01/31 13:07:24;;;;;;;4.53;2.20;;;;;;;8.63;54.64;98110.09;6980231;28;20205;-87
2022/01/31 13:10:47;;;;;;;2.63;2.23;;;;;;;8.60;54.25;98091.72;6978651;28;20222;-88
2022/01/31 13:14:29;;;;;;;4.57;2.30;;;;;;;8.39;54.24;98014.06;6978494;28;20793;-87
2022/01/31 13:18:03;;;;;;;4.80;2.87;;;;;;;8.92;55.45;98120.38;6955043;28;20294;-89
2022/01/31 13:21:28;;;;;;;3.40;2.50;;;;;;;8.74;55.67;98155.13;6963679;28;20265;-88
2022/01/31 13:25:03;;;;;;;2.67;2.20;;;;;;;8.88;55.64;98162.13;6987707;28;20282;-85
2022/01/31 13:28:26;;;;;;;3.63;2.23;;;;;;;8.92;55.36;98129.25;6977267;28;20601;-90
2022/01/31 13:31:48;;;;;;;4.67;2.60;;;;;;;8.35;56.52;98093.38;6975738;28;20718;-89
2022/01/31 13:35:12;;;;;;;2.43;2.23;;;;;;;8.49;56.70;98151.47;6976668;28;20193;-89
2022/01/31 13:38:33;;;;;;;5.63;2.77;;;;;;;8.40;55.92;98123.13;6979956;28;20198;-91
2022/01/31 13:41:55;;;;;;;4.13;2.73;;;;;;;8.55;55.75;98080.78;6964548;28;20712;-89
2022/01/31 13:45:25;;;;;;;3.10;2.50;;;;;;;8.40;55.34;98039.88;6950366;28;20219;-87
2022/01/31 13:48:54;;;;;;;4.73;2.20;;;;;;;8.81;55.92;98124.53;6957970;28;20274;-89
2022/01/31 13:52:15;;;;;;;3.70;2.23;;;;;;;8.28;55.24;98031.66;6966528;28;20222;-89
2022/01/31 13:55:42;;;;;;;6.13;2.53;;;;;;;8.79;55.22;98126.59;6966659;28;20215;-89
2022/01/31 13:59:06;;;;;;;5.97;2.77;;;;;;;8.55;55.07;98094.22;6959402;28;20598;-88
2022/01/31 14:02:30;;;;;;;4.73;2.60;;;;;;;8.38;54.73;98101.03;6949050;28;20219;-89
2022/01/31 14:05:57;;;;;;;3.80;2.63;;;;;;;8.11;54.72;98027.72;6948385;28;20231;-89
2022/01/31 14:09:19;;;;;;;6.40;3.00;;;;;;;8.91;54.17;98113.34;6974204;28;20250;-90
2022/01/31 14:12:41;;;;;;;5.57;2.77;;;;;;;8.20;54.13;98020.31;6959317;28;20227;-90
2022/01/31 14:16:03;;;;;;;6.03;2.40;;;;;;;8.21;55.50;98060.38;6950987;28;20213;-88
2022/01/31 14:19:26;;;;;;;2.73;2.40;;;;;;;8.76;54.99;98126.19;6950134;28;20203;-88
2022/01/31 14:22:57;;;;;;;4.17;2.50;;;;;;;8.41;56.68;98097.94;6949110;28;20217;-88
2022/01/31 14:26:20;;;;;;;5.40;3.03;;;;;;;7.99;56.84;98083.06;6948224;28;20340;-88
2022/01/31 14:29:42;;;;;;;7.63;3.03;;;;;;;7.84;57.08;98039.50;6947897;28;20202;-89
2022/01/31 14:33:06;;;;;;;7.67;3.27;;;;;;;8.29;57.46;98108.50;6946084;28;20234;-88
2022/01/31 14:36:36;;;;;;;3.37;2.60;;;;;;;7.66;56.76;98007.09;6946302;28;20310;-88
2022/01/31 14:40:08;;;;;;;7.23;2.40;;;;;;;8.37;57.27;98118.19;6946402;28;20204;-88
2022/01/31 14:47:23;;;;;;;4.07;3.00;;;;;;;9.25;54.52;98087.78;6945751;28;20198;-87
2022/01/31 14:50:45;;;;;;;3.47;3.10;;;;;;;7.92;56.12;98060.78;6946779;28;20337;-87
2022/01/31 14:54:12;;;;;;;5.53;2.30;;;;;;;8.07;56.55;98136.53;6945464;28;20203;-87
2022/01/31 14:57:34;;;;;;;4.50;2.70;;;;;;;7.89;58.11;98114.84;6946982;28;20197;-85
2022/01/31 15:00:59;;;;;;;14.03;6.73;;;;;;;7.79;59.29;98183.38;6967406;28;20215;-87
2022/01/31 15:04:24;;;;;;;6.37;3.63;;;;;;;7.83;59.41;98179.25;6971576;28;20228;-83
2022/01/31 15:07:56;;;;;;;5.13;2.57;;;;;;;7.60;60.32;98128.63;6966076;28;20212;-86
2022/01/31 15:11:20;;;;;;;6.60;3.70;;;;;;;7.85;60.68;98177.19;6964745;28;20225;-86
2022/01/31 15:14:43;;;;;;;5.37;3.07;;;;;;;8.22;60.34;98200.81;6961007;28;20205;-85
2022/01/31 15:18:05;;;;;;;6.63;2.80;;;;;;;8.36;59.62;98211.34;6989499;28;20182;-87
2022/01/31 15:21:28;;;;;;;4.77;2.50;;;;;;;7.46;61.25;98177.88;6970952;28;20228;-85
2022/01/31 15:24:50;;;;;;;3.80;2.63;;;;;;;7.56;62.18;98181.03;6965702;28;20610;-85
2022/01/31 15:28:13;;;;;;;4.20;3.00;;;;;;;7.71;61.01;98146.00;6973071;28;20237;-85
2022/01/31 15:31:35;;;;;;;6.43;2.80;;;;;;;8.12;60.69;98221.81;6964060;28;20225;-85
2022/01/31 15:34:57;;;;;;;5.30;3.60;;;;;;;7.49;61.49;98131.06;6958156;28;20226;-85
2022/01/31 15:38:19;;;;;;;5.57;3.10;;;;;;;6.79;63.02;98163.50;6958304;28;20208;-85
2022/01/31 15:41:49;;;;;;;4.70;3.50;;;;;;;7.44;62.08;98189.84;6955545;28;20230;-85
2022/01/31 15:45:12;;;;;;;7.93;3.87;;;;;;;7.63;60.69;98140.78;6955657;28;20231;-86
2022/01/31 15:48:34;;;;;;;7.87;3.03;;;;;;;7.55;60.90;98136.44;6968148;28;20202;-87
2022/01/31 15:51:56;;;;;;;7.73;3.37;;;;;;;7.66;61.99;98173.41;6967729;28;20221;-88
2022/01/31 15:55:19;;;;;;;6.03;3.17;;;;;;;8.12;60.09;98187.75;6972256;28;20244;-88
2022/01/31 15:58:41;;;;;;;4.60;3.00;;;;;;;7.62;60.20;98148.03;6969025;28;20198;-83
2022/01/31 16:02:06;;;;;;;9.03;3.23;;;;;;;7.84;60.51;98248.78;6964507;28;20681;-87
2022/01/31 16:05:27;;;;;;;14.83;5.93;;;;;;;7.82;61.28;98224.03;6975434;28;20229;-84
2022/01/31 16:08:49;;;;;;;8.60;4.97;;;;;;;8.36;60.01;98258.91;6972544;28;20202;-84
2022/01/31 16:12:10;;;;;;;5.93;3.30;;;;;;;8.61;59.35;98262.63;6964574;28;20222;-87
2022/01/31 16:15:33;;;;;;;11.47;3.73;;;;;;;7.92;59.13;98152.03;6971294;28;20210;-84
2022/01/31 16:18:56;;;;;;;7.30;3.60;;;;;;;8.09;59.25;98195.41;6959670;28;20199;-85
2022/01/31 16:22:17;;;;;;;8.67;3.47;;;;;;;8.02;59.34;98198.06;6957446;28;20225;-85
2022/01/31 16:25:42;;;;;;;7.27;3.03;;;;;;;8.47;58.62;98264.47;6959117;28;20226;-84
2022/01/31 16:29:04;;;;;;;4.90;3.00;;;;;;;8.60;57.71;98167.75;6962180;28;20208;-85
2022/01/31 16:32:27;;;;;;;5.23;2.80;;;;;;;7.92;58.97;98205.69;6957941;28;20221;-85
2022/01/31 16:35:50;;;;;;;5.40;2.63;;;;;;;8.66;58.50;98270.91;6959451;28;20596;-83
2022/01/31 16:39:12;;;;;;;4.73;2.90;;;;;;;8.49;57.52;98243.59;6962584;28;20661;-85
2022/01/31 16:42:34;;;;;;;4.83;2.80;;;;;;;8.32;57.49;98277.25;6962617;28;20583;-84
2022/01/31 16:45:56;;;;;;;11.77;3.67;;;;;;;8.04;57.77;98284.59;6963001;28;20223;-85
2022/01/31 16:49:20;;;;;;;6.07;2.90;;;;;;;8.28;57.52;98272.50;6963219;28;20203;-84
2022/01/31 16:52:43;;;;;;;4.03;2.77;;;;;;;7.99;57.68;98286.22;6965044;28;20230;-86
2022/01/31 16:56:09;;;;;;;6.47;2.93;;;;;;;8.14;56.75;98262.72;6965349;28;20206;-87
2022/01/31 16:59:31;;;;;;;3.87;2.57;;;;;;;8.27;55.87;98244.00;6973192;28;20206;-86
2022/01/31 17:02:53;;;;;;;4.57;2.50;;;;;;;8.63;55.10;98282.06;6972800;28;20225;-92
2022/01/31 17:06:16;;;;;;;7.87;4.00;;;;;;;8.97;54.87;98300.69;6968899;28;20262;-85
2022/01/31 17:09:39;;;;;;;5.53;2.90;;;;;;;8.38;56.22;98327.47;6970490;28;20295;-91
2022/01/31 17:13:01;;;;;;;7.90;3.30;;;;;;;8.57;54.81;98262.22;6973577;28;20229;-91
2022/01/31 17:16:24;;;;;;;8.50;3.80;;;;;;;9.08;54.74;98335.81;6966653;28;20199;-87
2022/01/31 17:19:46;;;;;;;6.60;3.03;;;;;;;8.45;55.51;98339.06;6963442;28;20207;-87
2022/01/31 17:23:08;;;;;;;5.73;2.87;;;;;;;8.17;56.89;98291.84;6965354;28;20223;-88
2022/01/31 17:35:47;;;;;;;12.63;3.07;;;;;;;8.72;55.51;98356.09;6976940;28;20254;-90
2022/01/31 17:39:10;;;;;;;5.37;2.87;;;;;;;8.72;54.49;98348.84;6960093;28;20210;-83
2022/01/31 17:43:08;;;;;;;9.43;3.73;;;;;;;7.90;55.89;98229.19;6957536;28;20603;-86
2022/01/31 17:46:31;;;;;;;5.37;2.90;;;;;;;9.23;54.00;98369.56;6953114;28;20306;-85
2022/01/31 17:49:52;;;;;;;5.67;2.83;;;;;;;8.74;55.11;98368.28;6964813;28;20199;-86
2022/01/31 17:53:14;;;;;;;3.93;2.80;;;;;;;8.11;55.39;98295.34;6982046;28;20231;-85
2022/01/31 17:56:39;;;;;;;9.50;3.30;;;;;;;8.44;54.93;98332.03;6971205;28;20249;-83
2022/01/31 18:00:00;;;;;;;5.73;3.00;;;;;;;8.37;53.98;98328.50;6971599;28;20724;-85
2022/01/31 18:03:22;;;;;;;5.57;2.57;;;;;;;8.43;56.01;98410.16;6980769;28;20226;-82
2022/01/31 18:06:44;;;;;;;9.27;2.80;;;;;;;8.46;55.42;98381.03;6978697;28;20371;-82
2022/01/31 18:10:06;;;;;;;7.83;3.30;;;;;;;8.47;56.34;98419.44;6969997;28;20705;-83
2022/01/31 18:13:29;;;;;;;5.77;3.07;;;;;;;8.15;56.89;98422.78;6973925;28;20232;-84
2022/01/31 18:16:51;;;;;;;9.90;3.43;;;;;;;8.32;57.03;98433.03;6990342;28;20213;-83
2022/01/31 18:20:18;;;;;;;6.07;3.07;;;;;;;8.00;57.18;98408.66;6993649;28;20658;-85
2022/01/31 18:23:40;;;;;;;7.73;3.23;;;;;;;7.81;57.78;98344.97;6960839;28;20553;-83
2022/01/31 18:27:02;;;;;;;3.70;2.47;;;;;;;8.24;57.62;98433.19;6972254;28;20235;-83
2022/01/31 18:30:27;;;;;;;9.17;3.73;;;;;;;8.81;56.14;98436.31;6972588;28;20195;-83
2022/01/31 18:33:50;;;;;;;7.67;3.00;;;;;;;8.49;56.71;98434.34;6975735;28;20201;-83
2022/01/31 18:37:12;;;;;;;8.17;3.03;;;;;;;8.67;56.71;98415.78;6953174;28;20361;-84
2022/01/31 18:40:34;;;;;;;10.40;4.07;;;;;;;8.46;56.86;98418.63;6971434;28;20702;-84
2022/01/31 18:44:01;;;;;;;5.50;3.53;;;;;;;8.33;57.81;98420.44;6975979;28;20199;-84
2022/01/31 18:47:24;;;;;;;4.63;3.13;;;;;;;8.11;58.43;98451.91;6976329;28;20205;-83
2022/01/31 18:50:49;;;;;;;9.57;3.03;;;;;;;8.09;58.31;98455.81;6976195;28;20214;-83
2022/01/31 18:54:12;;;;;;;8.03;3.63;;;;;;;8.31;58.71;98449.34;6975777;28;20225;-83
2022/01/31 18:57:34;;;;;;;6.00;4.37;;;;;;;7.93;57.50;98375.59;6976631;28;20229;-84
2022/01/31 19:00:56;;;;;;;6.57;3.40;;;;;;;8.04;59.04;98432.25;6976228;28;20276;-83
2022/01/31 19:04:19;;;;;;;9.27;3.07;;;;;;;8.07;59.22;98418.41;6976075;28;20232;-83
2022/01/31 19:07:40;;;;;;;5.47;3.23;;;;;;;7.33;60.78;98365.53;6972042;28;20574;-83
2022/01/31 19:11:08;;;;;;;8.63;3.73;;;;;;;7.98;60.50;98448.31;6975355;28;20229;-83
2022/01/31 19:18:05;;;;;;;11.47;3.40;;;;;;;7.96;61.20;98485.25;6973157;28;20211;-84
2022/01/31 19:21:29;;;;;;;7.23;4.10;;;;;;;8.00;62.05;98497.25;6973169;28;20229;-83
2022/01/31 19:24:52;;;;;;;7.07;3.47;;;;;;;7.58;62.49;98482.09;6976471;28;20677;-85
2022/01/31 19:28:16;;;;;;;7.40;3.80;;;;;;;7.96;62.26;98514.78;6970250;28;20199;-84
2022/01/31 19:31:38;;;;;;;6.13;4.37;;;;;;;7.85;61.86;98518.00;6993463;28;20220;-87
2022/01/31 19:34:59;;;;;;;6.07;3.27;;;;;;;7.62;61.43;98478.00;6981773;28;20199;-85
2022/01/31 19:38:24;;;;;;;7.67;4.23;;;;;;;7.80;61.90;98542.75;6985789;28;20221;-85
2022/01/31 19:45:25;;;;;;;6.13;3.80;;;;;;;7.84;62.47;98540.50;6983005;28;20293;-85
2022/01/31 19:48:48;;;;;;;8.47;3.83;;;;;;;8.10;61.64;98533.47;6976164;28;20221;-85
2022/01/31 19:52:10;;;;;;;8.13;4.07;;;;;;;7.65;61.22;98440.03;6974338;28;20217;-85
2022/01/31 19:55:33;;;;;;;9.27;3.37;;;;;;;7.81;61.47;98522.94;6974113;28;20234;-85
2022/01/31 19:58:55;;;;;;;12.93;5.90;;;;;;;8.29;60.70;98556.97;6970910;28;20202;-86
2022/01/31 20:02:17;;;;;;;9.07;3.93;;;;;;;8.05;61.93;98561.91;6975188;28;20308;-85
2022/01/31 20:05:41;;;;;;;5.10;3.43;;;;;;;8.17;60.87;98537.03;6974313;28;20235;-86
2022/01/31 20:09:10;;;;;;;5.10;4.13;;;;;;;8.24;60.39;98554.03;6964191;28;20206;-86
2022/01/31 20:12:33;;;;;;;8.73;4.40;;;;;;;7.38;60.48;98442.72;6972188;28;20295;-86
2022/01/31 20:15:56;;;;;;;6.80;3.77;;;;;;;8.04;60.98;98526.22;6947671;28;20661;-83
2022/01/31 20:19:18;;;;;;;10.53;4.20;;;;;;;8.21;60.23;98546.41;6949290;28;20240;-83
2022/01/31 20:22:40;;;;;;;10.50;3.90;;;;;;;7.59;60.95;98515.94;6952283;28;20226;-83
2022/01/31 20:26:03;;;;;;;7.60;3.40;;;;;;;8.08;60.59;98565.03;6951446;28;20230;-83
2022/01/31 20:29:27;;;;;;;4.27;3.30;;;;;;;7.75;61.08;98563.97;6952280;28;20232;-83
2022/01/31 20:32:48;;;;;;;8.40;3.93;;;;;;;7.46;61.74;98568.63;6953463;28;20230;-82
2022/01/31 20:36:10;;;;;;;5.20;3.60;;;;;;;7.85;61.46;98559.06;6959361;28;20228;-88
2022/01/31 20:39:47;;;;;;;8.03;3.20;;;;;;;8.17;60.28;98574.63;6976307;28;20422;-88
2022/01/31 20:43:09;;;;;;;7.97;3.53;;;;;;;8.32;60.30;98571.88;6975382;28;20289;-88
2022/01/31 20:46:33;;;;;;;9.80;3.40;;;;;;;8.17;59.81;98530.81;6976087;28;20233;-87
2022/01/31 20:49:54;;;;;;;5.87;3.60;;;;;;;7.81;60.00;98520.25;6975294;28;20215;-85
2022/01/31 20:53:16;;;;;;;4.80;3.37;;;;;;;7.90;60.01;98529.81;6975870;28;20231;-87
2022/01/31 20:56:38;;;;;;;5.53;3.20;;;;;;;8.01;59.44;98548.06;6975576;28;20205;-88
2022/01/31 21:00:00;;;;;;;6.23;3.43;;;;;;;8.06;60.51;98596.63;6976045;28;20573;-88
2022/01/31 21:03:24;;;;;;;5.70;3.07;;;;;;;7.91;60.94;98579.78;6974914;28;20222;-88
2022/01/31 21:06:45;;;;;;;10.93;4.00;;;;;;;7.90;60.78;98582.66;6974499;28;20230;-87
2022/01/31 21:10:08;;;;;;;5.97;3.37;;;;;;;7.90;61.50;98594.22;6975948;28;20197;-85
2022/01/31 21:13:30;;;;;;;6.40;3.17;;;;;;;8.10;60.54;98615.88;6980721;28;20233;-88
2022/01/31 21:16:51;;;;;;;6.83;3.17;;;;;;;7.79;60.68;98621.56;6996832;28;20202;-85
2022/01/31 21:24:31;;;;;;;5.60;3.67;;;;;;;7.39;60.79;98536.38;6991117;23;20223;-82
2022/01/31 21:27:53;;;;;;;6.27;3.27;;;;;;;7.08;61.66;98525.13;6968159;28;20210;-83
2022/01/31 21:31:16;;;;;;;3.37;3.00;;;;;;;7.13;62.26;98541.47;6961046;28;20304;-82
2022/01/31 21:34:39;;;;;;;6.87;4.03;;;;;;;7.28;62.50;98606.59;6955360;28;20206;-81
2022/01/31 21:38:24;;;;;;;7.07;3.00;;;;;;;7.49;62.86;98621.91;6961541;28;20203;-81
2022/01/31 21:41:47;;;;;;;7.00;3.57;;;;;;;7.28;62.08;98571.75;6934396;28;20241;-80
2022/01/31 21:45:10;;;;;;;7.43;3.57;;;;;;;7.12;63.24;98573.81;6927061;28;20223;-84
2022/01/31 21:48:32;;;;;;;6.33;3.20;;;;;;;6.94;63.34;98608.22;6943860;28;20202;-81
2022/01/31 21:51:56;;;;;;;7.20;3.83;;;;;;;7.12;64.22;98644.34;6954944;28;20203;-80
2022/01/31 21:55:21;;;;;;;4.90;3.63;;;;;;;6.69;63.80;98539.91;6955001;28;20206;-87